Time;durP1;ratioP1;P1;durP2;ratioP2;P2;SDS_P1;SDS_P2;PMS_P1;PMS_P2;Temp;Humidity;BMP_temperature;BMP_pressure;BME280_temperature;BME280_humidity;BME280_pressure;Samples;Min_cycle;Max_cycle;Signal;HPM_P1;HPM_P2
2024/01/06 00:01:28;;;;;;;10.20;6.73;;;23.80;50.90;;;;;;4958141;28;94024;-64
2024/01/06 00:03:56;;;;;;;13.60;7.47;;;23.80;50.20;;;;;;4959142;28;92046;-65
2024/01/06 00:06:25;;;;;;;13.97;7.97;;;23.70;50.20;;;;;;4958219;28;91188;-65
2024/01/06 00:08:54;;;;;;;10.27;6.37;;;23.70;50.30;;;;;;4958007;28;94443;-65
2024/01/06 00:11:23;;;;;;;15.23;7.03;;;23.70;50.30;;;;;;4958061;28;92757;-65
2024/01/06 00:13:52;;;;;;;12.30;7.97;;;23.70;50.40;;;;;;4976339;28;93118;-65
2024/01/06 00:16:20;;;;;;;9.83;6.13;;;23.60;50.30;;;;;;4978058;28;92031;-65
2024/01/06 00:18:48;;;;;;;10.23;6.30;;;23.60;50.40;;;;;;4976574;28;94066;-65
2024/01/06 00:21:17;;;;;;;11.23;6.70;;;23.60;50.40;;;;;;4976960;28;94024;-65
2024/01/06 00:23:45;;;;;;;11.37;6.80;;;23.60;50.50;;;;;;4977584;28;91966;-65
2024/01/06 00:26:13;;;;;;;9.87;7.47;;;23.50;50.30;;;;;;4976835;28;91969;-65
2024/01/06 00:28:41;;;;;;;13.77;7.07;;;23.50;50.30;;;;;;4962748;28;93689;-65
2024/01/06 00:31:10;;;;;;;11.37;6.83;;;23.50;50.40;;;;;;4958119;28;93738;-65
2024/01/06 00:33:38;;;;;;;11.47;6.83;;;23.50;50.50;;;;;;4958187;28;92055;-65
2024/01/06 00:36:08;;;;;;;10.80;6.07;;;23.50;50.50;;;;;;4962238;28;92178;-65
2024/01/06 00:38:36;;;;;;;13.37;6.70;;;23.40;50.40;;;;;;4977360;28;95175;-65
2024/01/06 00:41:04;;;;;;;9.73;6.07;;;23.40;50.40;;;;;;4977291;28;94660;-65
2024/01/06 00:43:32;;;;;;;10.53;5.97;;;23.40;50.50;;;;;;4977363;28;91957;-65
2024/01/06 00:46:00;;;;;;;11.07;6.23;;;23.50;50.50;;;;;;4977649;28;92333;-65
2024/01/06 00:48:30;;;;;;;11.43;6.70;;;23.40;50.50;;;;;;4966584;28;94477;-65
2024/01/06 00:50:58;;;;;;;12.27;6.53;;;23.40;50.50;;;;;;4958285;28;93899;-65
2024/01/06 00:53:26;;;;;;;11.47;6.43;;;23.40;50.50;;;;;;4977304;28;92024;-65
2024/01/06 00:55:54;;;;;;;9.50;6.70;;;23.40;50.50;;;;;;4977332;28;91363;-65
2024/01/06 00:58:22;;;;;;;8.33;5.70;;;23.30;50.50;;;;;;4977338;28;94745;-65
2024/01/06 01:00:50;;;;;;;8.60;6.47;;;23.30;51.10;;;;;;4977851;28;94021;-65
2024/01/06 01:03:18;;;;;;;7.20;5.23;;;23.30;50.60;;;;;;4977014;28;92925;-65
2024/01/06 01:05:48;;;;;;;8.80;5.37;;;23.30;50.60;;;;;;4977861;28;91993;-65
2024/01/06 01:08:16;;;;;;;9.50;6.00;;;23.30;51.20;;;;;;4958820;28;94213;-65
2024/01/06 01:10:44;;;;;;;9.10;6.87;;;23.30;50.60;;;;;;4957509;28;93851;-65
2024/01/06 01:13:13;;;;;;;9.87;6.23;;;23.20;50.50;;;;;;4965291;28;93011;-65
2024/01/06 01:15:41;;;;;;;7.13;5.10;;;23.30;51.20;;;;;;4957597;28;92109;-65
2024/01/06 01:18:09;;;;;;;14.90;6.83;;;23.20;50.60;;;;;;4957415;28;94412;-65
2024/01/06 01:20:37;;;;;;;10.77;6.97;;;23.20;50.60;;;;;;4957894;28;93991;-65
2024/01/06 01:23:06;;;;;;;9.47;5.87;;;23.20;50.60;;;;;;4966617;28;92191;-65
2024/01/06 01:25:34;;;;;;;11.37;6.83;;;23.20;50.60;;;;;;4956674;28;92091;-65
2024/01/06 01:28:02;;;;;;;8.37;5.33;;;23.20;50.60;;;;;;4956827;28;95100;-65
2024/01/06 01:30:32;;;;;;;8.67;5.73;;;23.20;50.60;;;;;;4957424;28;93696;-65
2024/01/06 01:33:00;;;;;;;9.03;5.70;;;23.10;51.20;;;;;;4957538;28;92058;-65
2024/01/06 01:35:28;;;;;;;9.83;6.40;;;23.10;50.70;;;;;;4957123;28;92151;-65
2024/01/06 01:37:56;;;;;;;10.50;5.20;;;23.10;50.60;;;;;;4973741;28;94211;-65
2024/01/06 01:40:26;;;;;;;9.67;4.83;;;23.00;50.60;;;;;;4961099;28;93915;-65
2024/01/06 01:42:53;;;;;;;9.17;6.17;;;23.00;50.60;;;;;;4960448;28;92114;-65
2024/01/06 01:45:22;;;;;;;8.40;5.70;;;23.00;50.60;;;;;;4960508;28;91533;-65
2024/01/06 01:47:50;;;;;;;7.43;6.07;;;23.00;50.60;;;;;;4960063;28;93165;-65
2024/01/06 01:50:20;;;;;;;7.43;5.27;;;23.00;50.70;;;;;;4960616;28;93828;-65
2024/01/06 01:52:48;;;;;;;12.37;6.90;;;23.00;50.60;;;;;;4975201;28;93039;-65
2024/01/06 01:55:16;;;;;;;11.27;6.40;;;23.00;50.70;;;;;;4980292;28;92063;-65
2024/01/06 01:57:46;;;;;;;11.00;5.77;;;23.00;50.70;;;;;;4979920;28;94382;-65
2024/01/06 02:00:15;;;;;;;8.20;5.40;;;23.00;50.70;;;;;;4962546;28;93973;-64
2024/01/06 02:02:43;;;;;;;7.30;4.67;;;23.00;50.70;;;;;;4961435;28;92102;-65
2024/01/06 02:05:11;;;;;;;5.93;5.03;;;23.00;50.80;;;;;;4960085;28;92044;-65
2024/01/06 02:07:39;;;;;;;8.63;6.03;;;22.90;50.70;;;;;;4971690;28;94237;-65
2024/01/06 02:10:08;;;;;;;7.70;5.43;;;22.90;50.70;;;;;;4979032;28;93711;-65
2024/01/06 02:12:36;;;;;;;6.03;4.47;;;22.90;50.90;;;;;;4979701;28;92120;-65
2024/01/06 02:15:06;;;;;;;7.37;5.13;;;22.90;50.70;;;;;;4965114;28;93457;-65
2024/01/06 02:17:34;;;;;;;6.90;5.23;;;22.90;50.70;;;;;;4960017;28;96204;-65
2024/01/06 02:20:03;;;;;;;9.33;5.17;;;22.90;50.70;;;;;;4959959;28;93721;-65
2024/01/06 02:22:32;;;;;;;10.97;5.17;;;22.90;50.70;;;;;;4959548;28;92106;-65
2024/01/06 02:25:00;;;;;;;7.00;5.03;;;22.90;50.80;;;;;;4958977;28;92280;-65
2024/01/06 02:27:28;;;;;;;8.13;4.73;;;22.90;50.80;;;;;;4959649;28;94553;-66
2024/01/06 02:29:56;;;;;;;6.17;3.87;;;22.80;50.70;;;;;;4959405;28;93855;-65
2024/01/06 02:32:24;;;;;;;5.73;3.97;;;22.80;50.70;;;;;;4960177;28;92244;-65
2024/01/06 02:34:52;;;;;;;8.13;4.93;;;22.80;50.70;;;;;;4960061;28;91408;-65
2024/01/06 02:37:20;;;;;;;5.87;3.90;;;22.80;50.60;;;;;;4965322;28;94470;-65
2024/01/06 02:39:50;;;;;;;5.17;3.93;;;23.30;51.20;;;;;;4978959;28;93732;-65
2024/01/06 02:42:18;;;;;;;8.20;4.30;;;22.80;50.70;;;;;;4979745;28;92927;-65
2024/01/06 02:44:46;;;;;;;6.67;4.43;;;22.70;50.70;;;;;;4972921;28;92074;-65
2024/01/06 02:47:14;;;;;;;6.07;4.73;;;22.70;50.70;;;;;;4959349;28;94021;-64
2024/01/06 02:49:42;;;;;;;6.27;3.87;;;22.70;50.80;;;;;;4964203;28;92734;-64
2024/01/06 02:52:10;;;;;;;6.50;4.03;;;22.70;50.70;;;;;;4976645;28;91913;-64
2024/01/06 02:54:39;;;;;;;10.67;4.63;;;22.70;50.70;;;;;;4958641;28;92069;-65
2024/01/06 02:57:08;;;;;;;4.53;3.90;;;22.70;50.70;;;;;;4958866;28;94695;-65
2024/01/06 02:59:36;;;;;;;4.07;2.80;;;22.70;50.70;;;;;;4959142;28;93908;-65
2024/01/06 03:02:04;;;;;;;5.93;3.30;;;22.60;50.60;;;;;;4959750;28;91995;-65
2024/01/06 03:04:32;;;;;;;6.00;3.50;;;22.60;50.70;;;;;;4958892;28;92100;-66
2024/01/06 03:07:00;;;;;;;6.33;4.07;;;22.60;50.70;;;;;;4957847;28;95411;-65
2024/01/06 03:09:28;;;;;;;4.87;3.70;;;22.60;50.70;;;;;;4958505;28;93656;-65
2024/01/06 03:11:56;;;;;;;5.10;3.83;;;22.60;50.70;;;;;;4960668;28;92076;-65
2024/01/06 03:14:26;;;;;;;6.30;3.27;;;22.60;50.70;;;;;;4959491;28;92114;-65
2024/01/06 03:16:54;;;;;;;5.67;2.77;;;22.60;50.70;;;;;;4977866;28;94101;-65
2024/01/06 03:19:25;;;;;;;3.90;2.90;;;22.60;50.70;;;;;;4960594;28;92681;-65
2024/01/06 03:21:54;;;;;;;7.70;3.33;;;22.60;50.70;;;;;;4940513;28;92112;-65
2024/01/06 03:24:22;;;;;;;5.97;3.33;;;22.60;50.60;;;;;;4971602;28;91316;-65
2024/01/06 03:26:50;;;;;;;2.90;2.60;;;22.60;50.70;;;;;;4978508;28;93263;-65
2024/01/06 03:29:18;;;;;;;5.00;3.00;;;22.60;50.80;;;;;;4971800;28;93881;-64
2024/01/06 03:31:47;;;;;;;3.90;2.63;;;22.50;50.60;;;;;;4968880;28;92995;-65
2024/01/06 03:34:15;;;;;;;3.03;2.30;;;22.50;50.70;;;;;;4975314;28;92060;-64
2024/01/06 03:36:44;;;;;;;5.10;2.70;;;22.50;50.60;;;;;;4969228;28;94436;-65
2024/01/06 03:39:13;;;;;;;2.20;1.80;;;22.50;50.70;;;;;;4977529;28;94112;-65
2024/01/06 03:41:41;;;;;;;2.70;2.50;;;22.50;50.70;;;;;;4978914;28;91985;-65
2024/01/06 03:44:09;;;;;;;2.83;2.13;;;22.50;50.70;;;;;;4979015;28;92108;-65
2024/01/06 03:46:37;;;;;;;3.27;2.27;;;22.60;50.80;;;;;;4977871;28;94016;-64
2024/01/06 03:49:06;;;;;;;4.93;2.20;;;22.40;50.70;;;;;;4978656;28;96312;-65
2024/01/06 03:51:34;;;;;;;2.63;2.27;;;22.40;50.70;;;;;;4978037;28;91972;-64
2024/01/06 03:54:02;;;;;;;2.33;2.07;;;22.40;50.60;;;;;;4968530;28;92052;-65
2024/01/06 03:56:30;;;;;;;4.40;2.17;;;22.40;50.60;;;;;;4958437;28;94007;-65
2024/01/06 03:58:58;;;;;;;3.90;2.50;;;22.40;50.60;;;;;;4958736;28;95120;-64
2024/01/06 04:01:28;;;;;;;2.20;2.00;;;22.40;50.60;;;;;;4957336;28;92095;-64
2024/01/06 04:03:56;;;;;;;2.13;1.87;;;22.40;50.70;;;;;;4958534;28;91912;-65
2024/01/06 04:06:25;;;;;;;3.43;2.43;;;22.30;50.60;;;;;;4957768;28;92906;-65
2024/01/06 04:08:54;;;;;;;2.57;2.13;;;22.30;50.60;;;;;;4963970;28;93993;-64
2024/01/06 04:11:22;;;;;;;3.13;2.00;;;22.30;50.50;;;;;;4969622;28;92075;-64
2024/01/06 04:13:50;;;;;;;2.33;2.00;;;22.30;50.50;;;;;;4959526;28;91316;-65
2024/01/06 04:16:18;;;;;;;1.53;1.43;;;22.30;50.50;;;;;;4965299;28;94310;-65
2024/01/06 04:18:46;;;;;;;3.03;1.90;;;22.30;50.60;;;;;;4978157;28;96424;-65
2024/01/06 04:21:15;;;;;;;2.17;1.80;;;22.30;50.60;;;;;;4971195;28;94108;-64
2024/01/06 04:23:44;;;;;;;4.53;2.33;;;22.30;50.60;;;;;;4960030;28;92140;-64
2024/01/06 04:26:13;;;;;;;2.03;1.93;;;22.30;51.20;;;;;;4972270;28;94201;-64
2024/01/06 04:28:41;;;;;;;2.47;1.53;;;22.30;50.60;;;;;;4958091;28;92699;-65
2024/01/06 04:31:09;;;;;;;2.03;1.30;;;22.20;50.40;;;;;;4961630;28;91904;-65
2024/01/06 04:33:40;;;;;;;1.93;1.10;;;22.20;50.40;;;;;;4969981;28;92080;-65
2024/01/06 04:36:08;;;;;;;2.17;1.47;;;22.20;50.50;;;;;;4957462;28;94103;-64
2024/01/06 04:38:36;;;;;;;2.37;1.90;;;22.20;50.40;;;;;;4957708;28;93925;-64
2024/01/06 04:41:06;;;;;;;2.43;1.53;;;22.20;50.40;;;;;;4957891;28;92892;-64
2024/01/06 04:43:34;;;;;;;2.83;1.90;;;22.20;50.40;;;;;;4955370;28;93047;-65
2024/01/06 04:46:02;;;;;;;2.33;1.43;;;22.20;50.40;;;;;;4965001;28;95165;-65
2024/01/06 04:48:30;;;;;;;2.27;2.07;;;22.20;50.40;;;;;;4967217;28;94784;-64
2024/01/06 04:50:58;;;;;;;1.33;1.23;;;22.20;50.50;;;;;;4967239;28;92192;-64
2024/01/06 04:53:26;;;;;;;2.17;1.47;;;22.20;50.40;;;;;;4968885;28;92169;-65
2024/01/06 04:55:54;;;;;;;3.03;1.80;;;22.10;50.40;;;;;;4967854;28;93941;-65
2024/01/06 04:58:23;;;;;;;2.23;1.67;;;22.10;50.30;;;;;;4968097;28;93830;-65
2024/01/06 05:00:52;;;;;;;2.93;1.93;;;22.10;50.30;;;;;;4970699;28;92356;-65
2024/01/06 05:03:20;;;;;;;2.10;1.87;;;22.10;50.40;;;;;;4969794;28;91441;-65
2024/01/06 05:05:48;;;;;;;3.43;1.80;;;22.10;50.30;;;;;;4964195;28;94117;-64
2024/01/06 05:08:17;;;;;;;2.63;1.60;;;22.10;50.30;;;;;;4968034;28;93984;-64
2024/01/06 05:10:46;;;;;;;2.67;2.13;;;22.10;50.30;;;;;;4965861;28;92931;-65
2024/01/06 05:13:17;;;;;;;4.13;2.33;;;22.10;50.30;;;;;;4970707;28;92100;-65
2024/01/06 05:15:46;;;;;;;2.70;1.97;;;22.10;50.30;;;;;;4968519;28;94197;-64
2024/01/06 05:18:15;;;;;;;3.10;1.80;;;22.00;50.30;;;;;;4971602;28;94544;-64
2024/01/06 05:20:43;;;;;;;4.87;2.67;;;22.00;50.40;;;;;;4973619;28;92042;-64
2024/01/06 05:23:11;;;;;;;4.03;2.47;;;22.00;50.30;;;;;;4971203;28;92103;-64
2024/01/06 05:25:39;;;;;;;3.10;2.43;;;22.00;50.20;;;;;;4963042;28;94216;-64
2024/01/06 05:28:07;;;;;;;2.77;2.43;;;22.00;50.20;;;;;;4975067;28;94023;-64
2024/01/06 05:30:35;;;;;;;3.80;2.90;;;22.10;50.30;;;;;;4980573;28;92144;-64
2024/01/06 05:33:05;;;;;;;4.60;2.57;;;22.00;50.20;;;;;;4970742;28;92101;-64
2024/01/06 05:35:34;;;;;;;3.97;2.63;;;22.00;50.20;;;;;;4960284;28;95110;-64
2024/01/06 05:38:02;;;;;;;3.63;2.40;;;21.90;50.00;;;;;;4968633;28;94775;-64
2024/01/06 05:40:30;;;;;;;4.07;2.67;;;22.00;50.20;;;;;;4973641;28;92223;-64
2024/01/06 05:42:58;;;;;;;4.33;2.70;;;22.00;50.10;;;;;;4960201;28;92091;-64
2024/01/06 05:45:26;;;;;;;4.50;2.73;;;21.90;49.90;;;;;;4960582;28;94150;-64
2024/01/06 05:47:58;;;;;;;4.40;2.83;;;21.90;50.00;;;;;;4966765;28;93764;-64
2024/01/06 05:50:27;;;;;;;4.17;2.87;;;21.90;49.90;;;;;;4980722;28;92110;-64
2024/01/06 05:52:55;;;;;;;4.43;3.03;;;21.90;49.90;;;;;;4975209;28;91353;-64
2024/01/06 05:55:24;;;;;;;2.60;2.23;;;21.90;49.90;;;;;;4960195;28;94190;-64
2024/01/06 05:57:52;;;;;;;4.17;2.70;;;21.90;49.90;;;;;;4959642;28;93850;-64
2024/01/06 06:00:20;;;;;;;5.80;3.43;;;21.90;49.90;;;;;;4960467;28;92895;-64
2024/01/06 06:02:48;;;;;;;4.30;2.83;;;21.90;49.90;;;;;;4964298;28;92116;-64
2024/01/06 06:05:16;;;;;;;6.00;2.73;;;21.90;50.60;;;;;;4960741;28;93440;-64
2024/01/06 06:07:46;;;;;;;3.63;2.87;;;21.80;49.80;;;;;;4962428;28;93901;-64
2024/01/06 06:10:15;;;;;;;4.30;2.80;;;21.80;49.80;;;;;;4979008;28;92004;-65
2024/01/06 06:12:44;;;;;;;5.33;2.97;;;21.90;49.90;;;;;;4959207;28;92074;-64
2024/01/06 06:15:12;;;;;;;4.37;3.30;;;21.90;49.90;;;;;;4960649;28;94131;-64
2024/01/06 06:17:40;;;;;;;3.87;2.23;;;21.80;49.80;;;;;;4960558;28;92587;-65
2024/01/06 06:20:09;;;;;;;6.70;3.07;;;21.80;49.90;;;;;;4979420;28;92077;-65
2024/01/06 06:22:37;;;;;;;4.87;2.67;;;21.80;49.80;;;;;;4979621;28;92083;-64
2024/01/06 06:25:08;;;;;;;4.23;2.50;;;21.80;50.50;;;;;;4957277;28;95218;-65
2024/01/06 06:27:36;;;;;;;3.70;2.63;;;21.80;49.80;;;;;;4959410;28;95365;-64
2024/01/06 06:30:05;;;;;;;1.60;1.40;;;21.80;49.80;;;;;;4979019;28;91976;-64
2024/01/06 06:32:33;;;;;;;4.90;2.37;;;21.80;49.70;;;;;;4980018;28;92118;-64
2024/01/06 06:35:02;;;;;;;4.30;2.07;;;21.70;49.80;;;;;;4960242;28;94351;-64
2024/01/06 06:37:31;;;;;;;3.23;2.00;;;21.70;49.80;;;;;;4959631;28;96621;-64
2024/01/06 06:39:59;;;;;;;3.17;2.60;;;21.70;49.90;;;;;;4976760;28;92058;-65
2024/01/06 06:42:29;;;;;;;4.57;2.43;;;21.70;49.80;;;;;;4964898;28;91330;-64
2024/01/06 06:44:57;;;;;;;2.80;1.80;;;21.70;49.80;;;;;;4959463;28;94188;-64
2024/01/06 06:47:25;;;;;;;3.90;2.13;;;21.70;50.00;;;;;;4959171;28;93835;-64
2024/01/06 06:49:53;;;;;;;3.90;2.27;;;21.70;49.80;;;;;;4973935;28;93036;-65
2024/01/06 06:52:21;;;;;;;2.30;1.57;;;21.70;49.80;;;;;;4979114;28;92035;-64
2024/01/06 06:54:49;;;;;;;3.87;2.40;;;21.70;49.80;;;;;;4974589;28;94260;-65
2024/01/06 06:57:17;;;;;;;6.27;2.23;;;21.60;49.70;;;;;;4979427;28;93979;-67
2024/01/06 06:59:47;;;;;;;2.60;2.33;;;21.60;49.60;;;;;;4966008;28;92052;-64
2024/01/06 07:02:15;;;;;;;4.43;1.93;;;21.60;49.70;;;;;;4959912;28;92092;-64
2024/01/06 07:04:43;;;;;;;2.43;1.77;;;21.60;49.60;;;;;;4959249;28;93611;-64
2024/01/06 07:07:11;;;;;;;3.30;2.30;;;21.60;49.60;;;;;;4958996;28;93805;-64
2024/01/06 07:09:39;;;;;;;3.30;2.23;;;21.60;49.60;;;;;;4960145;28;92070;-64
2024/01/06 07:12:08;;;;;;;6.50;2.00;;;21.60;50.00;;;;;;4959226;28;91815;-64
2024/01/06 07:14:36;;;;;;;2.30;1.67;;;21.60;49.60;;;;;;4957446;28;95083;-64
2024/01/06 07:17:06;;;;;;;5.47;2.40;;;21.60;49.70;;;;;;4959264;28;94933;-64
2024/01/06 07:19:34;;;;;;;3.47;2.07;;;21.60;49.60;;;;;;4961505;28;93384;-65
2024/01/06 07:22:02;;;;;;;1.47;1.37;;;21.60;49.70;;;;;;4962236;28;92011;-68
2024/01/06 07:24:34;;;;;;;1.73;1.40;;;21.60;49.70;;;;;;4971757;28;94186;-64
2024/01/06 07:27:03;;;;;;;1.70;1.53;;;21.60;49.60;;;;;;4958479;28;93918;-65
2024/01/06 07:29:31;;;;;;;2.57;2.00;;;21.60;49.70;;;;;;4958530;28;92122;-64
2024/01/06 07:31:59;;;;;;;1.87;1.60;;;21.60;49.80;;;;;;4963234;28;91525;-65
2024/01/06 07:34:28;;;;;;;1.93;1.37;;;21.60;49.80;;;;;;4955216;28;94238;-64
2024/01/06 07:36:57;;;;;;;2.13;1.40;;;21.60;49.80;;;;;;4958767;28;93895;-64
2024/01/06 07:39:25;;;;;;;2.20;1.70;;;21.70;49.90;;;;;;4960140;28;92760;-65
2024/01/06 07:41:53;;;;;;;2.13;1.50;;;21.70;49.80;;;;;;4958512;28;92145;-64
2024/01/06 07:44:24;;;;;;;2.73;2.17;;;21.80;50.00;;;;;;4959689;28;94641;-64
2024/01/06 07:46:53;;;;;;;2.03;1.80;;;22.00;50.60;;;;;;4957939;28;93993;-65
2024/01/06 07:49:21;;;;;;;5.27;1.70;;;22.10;49.90;;;;;;4958687;28;92106;-64
2024/01/06 07:51:51;;;;;;;1.90;1.40;;;22.20;49.90;;;;;;4962437;28;92145;-64
2024/01/06 07:54:19;;;;;;;6.30;2.80;;;22.30;50.40;;;;;;4958144;28;94203;-65
2024/01/06 07:56:47;;;;;;;3.70;1.70;;;22.50;49.70;;;;;;4958957;28;92762;-65
2024/01/06 07:59:15;;;;;;;2.60;1.73;;;22.70;49.80;;;;;;4958177;28;91999;-64
2024/01/06 08:01:43;;;;;;;1.77;1.63;;;22.90;49.70;;;;;;4958415;28;92075;-64
2024/01/06 08:04:11;;;;;;;1.83;1.57;;;23.00;49.60;;;;;;4958282;28;95167;-64
2024/01/06 08:06:39;;;;;;;2.07;1.57;;;23.20;49.50;;;;;;4958444;28;94867;-64
2024/01/06 08:09:09;;;;;;;1.93;1.70;;;23.30;49.40;;;;;;4958948;28;92057;-64
2024/01/06 08:11:37;;;;;;;1.60;1.43;;;23.40;49.30;;;;;;4959211;28;92035;-64
2024/01/06 08:14:05;;;;;;;2.10;1.63;;;23.60;50.00;;;;;;4970591;28;93067;-64
2024/01/06 08:16:33;;;;;;;2.07;1.77;;;23.70;49.30;;;;;;4970120;28;93857;-64
2024/01/06 08:19:01;;;;;;;2.23;2.03;;;23.80;49.80;;;;;;4968869;28;91939;-64
2024/01/06 08:21:29;;;;;;;2.13;1.63;;;23.90;49.20;;;;;;4973333;28;91352;-64
2024/01/06 08:23:57;;;;;;;1.23;1.13;;;24.00;49.10;;;;;;4972978;28;94245;-64
2024/01/06 08:26:27;;;;;;;2.10;1.63;;;24.00;49.10;;;;;;4972200;28;93786;-64
2024/01/06 08:28:55;;;;;;;2.40;1.10;;;24.00;49.00;;;;;;4957572;28;93131;-64
2024/01/06 08:31:23;;;;;;;2.77;1.83;;;24.00;48.90;;;;;;4961042;28;92089;-64
2024/01/06 08:33:52;;;;;;;1.37;1.27;;;24.00;48.90;;;;;;4977001;28;94408;-64
2024/01/06 08:36:20;;;;;;;1.33;1.13;;;24.10;49.00;;;;;;4974079;28;94259;-64
2024/01/06 08:38:48;;;;;;;2.47;1.70;;;24.10;48.90;;;;;;4958598;28;92096;-64
2024/01/06 08:41:17;;;;;;;2.20;1.37;;;24.20;48.90;;;;;;4959444;28;92064;-64
2024/01/06 08:43:46;;;;;;;1.20;1.10;;;24.30;49.60;;;;;;4978203;28;94084;-64
2024/01/06 08:46:14;;;;;;;1.80;1.10;;;24.30;48.80;;;;;;4977501;28;93935;-64
2024/01/06 08:48:42;;;;;;;1.23;1.13;;;24.50;48.80;;;;;;4958219;28;92038;-64
2024/01/06 08:51:10;;;;;;;1.73;1.03;;;24.50;48.60;;;;;;4958637;28;92038;-64
2024/01/06 08:53:38;;;;;;;1.30;0.87;;;24.60;48.60;;;;;;4957309;28;94510;-64
2024/01/06 08:56:07;;;;;;;1.83;1.17;;;24.60;48.50;;;;;;4958166;28;94596;-64
2024/01/06 08:58:35;;;;;;;1.27;1.10;;;24.60;48.50;;;;;;4958126;28;92202;-64
2024/01/06 09:01:05;;;;;;;1.43;1.30;;;24.60;49.20;;;;;;4957838;28;92175;-64
2024/01/06 09:03:33;;;;;;;1.73;1.27;;;24.60;48.60;;;;;;4962362;28;93075;-64
2024/01/06 09:06:01;;;;;;;0.80;0.80;;;24.60;48.60;;;;;;4962096;28;93826;-64
2024/01/06 09:08:29;;;;;;;0.83;0.77;;;24.50;48.50;;;;;;4964090;28;92698;-64
2024/01/06 09:10:58;;;;;;;1.93;1.17;;;24.50;48.80;;;;;;4977967;28;91825;-64
2024/01/06 09:13:26;;;;;;;1.13;0.93;;;24.30;49.20;;;;;;4965268;28;94378;-64
2024/01/06 09:15:54;;;;;;;0.97;0.90;;;24.30;48.70;;;;;;4957241;28;93924;-64
2024/01/06 09:18:26;;;;;;;0.80;0.80;;;24.20;48.70;;;;;;4957218;28;93160;-64
2024/01/06 09:20:53;;;;;;;1.23;1.10;;;24.20;48.70;;;;;;4949893;28;92050;-64
2024/01/06 09:23:21;;;;;;;0.70;0.70;;;24.10;48.90;;;;;;4956199;28;94217;-64
2024/01/06 09:25:52;;;;;;;0.50;0.50;;;24.20;49.10;;;;;;4960852;28;94155;-64
2024/01/06 09:28:21;;;;;;;0.67;0.67;;;24.00;48.90;;;;;;4962025;28;92137;-65
2024/01/06 09:30:50;;;;;;;0.50;0.50;;;23.90;48.90;;;;;;4964545;28;92205;-64
2024/01/06 09:33:18;;;;;;;0.80;0.63;;;23.90;49.00;;;;;;4970596;28;94106;-65
2024/01/06 09:35:48;;;;;;;1.07;0.97;;;23.90;49.30;;;;;;4976316;28;92599;-64
2024/01/06 09:38:17;;;;;;;2.50;1.33;;;23.80;49.10;;;;;;4964996;28;92115;-65
2024/01/06 09:40:45;;;;;;;1.03;0.80;;;23.80;49.10;;;;;;4956427;28;92083;-64
2024/01/06 09:43:13;;;;;;;2.87;1.37;;;23.80;49.20;;;;;;4969224;28;97543;-65
2024/01/06 09:45:41;;;;;;;0.77;0.73;;;23.80;49.30;;;;;;4973934;28;94713;-65
2024/01/06 09:48:11;;;;;;;2.70;1.20;;;23.70;49.30;;;;;;4957447;28;92004;-65
2024/01/06 09:50:41;;;;;;;1.63;1.20;;;23.70;49.40;;;;;;4956026;28;92210;-65
2024/01/06 09:53:11;;;;;;;3.60;1.20;;;23.60;49.30;;;;;;4937103;28;94275;-65
2024/01/06 09:55:39;;;;;;;2.33;1.43;;;23.70;49.50;;;;;;4937100;28;93758;-65
2024/01/06 09:58:08;;;;;;;1.20;1.10;;;23.70;49.60;;;;;;4957355;28;92124;-65
2024/01/06 10:00:36;;;;;;;2.53;1.67;;;23.70;49.50;;;;;;4967596;28;91504;-65
2024/01/06 10:03:04;;;;;;;1.60;1.50;;;23.70;49.40;;;;;;4969552;28;92831;-65
2024/01/06 10:05:32;;;;;;;4.37;1.40;;;23.70;49.50;;;;;;4968617;28;94157;-65
2024/01/06 10:08:00;;;;;;;3.70;1.70;;;23.60;49.40;;;;;;4959784;28;93073;-65
2024/01/06 10:10:30;;;;;;;6.67;1.70;;;23.60;49.50;;;;;;4959669;28;92066;-66
2024/01/06 10:12:58;;;;;;;5.73;2.07;;;23.60;49.50;;;;;;4960246;28;94309;-65
2024/01/06 10:15:26;;;;;;;3.30;1.90;;;23.60;49.50;;;;;;4959760;28;93843;-65
2024/01/06 10:17:55;;;;;;;1.40;1.10;;;23.60;49.50;;;;;;4960616;28;92065;-65
2024/01/06 10:20:23;;;;;;;1.20;1.10;;;23.60;49.60;;;;;;4959662;28;92379;-65
2024/01/06 10:22:51;;;;;;;1.97;1.37;;;23.60;49.60;;;;;;4959565;28;93873;-65
2024/01/06 10:25:19;;;;;;;1.67;1.00;;;23.60;49.70;;;;;;4960705;28;94019;-65
2024/01/06 10:27:48;;;;;;;6.03;1.30;;;23.60;49.60;;;;;;4961023;28;91821;-66
2024/01/06 10:30:18;;;;;;;1.63;1.10;;;23.60;49.60;;;;;;4960280;28;92120;-65
2024/01/06 10:32:46;;;;;;;0.80;0.80;;;23.50;49.60;;;;;;4959600;28;95096;-65
2024/01/06 10:35:15;;;;;;;1.73;1.17;;;23.40;49.50;;;;;;4959823;28;94787;-65
2024/01/06 10:37:43;;;;;;;1.00;0.90;;;23.40;49.60;;;;;;4960289;28;91982;-65
2024/01/06 10:40:12;;;;;;;1.90;1.27;;;23.40;49.60;;;;;;4959502;28;92143;-65
2024/01/06 10:42:41;;;;;;;1.10;1.00;;;23.40;49.60;;;;;;4959619;28;94148;-65
2024/01/06 10:45:12;;;;;;;0.93;0.83;;;23.30;49.60;;;;;;4959515;28;93881;-65
2024/01/06 10:47:42;;;;;;;1.27;1.03;;;23.30;49.60;;;;;;4960653;28;91988;-65
2024/01/06 10:50:10;;;;;;;0.80;0.80;;;23.30;49.70;;;;;;4960730;28;91227;-65
2024/01/06 10:52:39;;;;;;;0.63;0.50;;;23.30;49.70;;;;;;4959781;28;94086;-65
2024/01/06 10:55:07;;;;;;;1.10;1.00;;;23.20;49.60;;;;;;4959675;28;93860;-65
2024/01/06 10:57:35;;;;;;;1.10;0.83;;;23.20;49.70;;;;;;4958770;28;93027;-65
2024/01/06 11:00:05;;;;;;;0.97;0.70;;;23.20;49.70;;;;;;4959363;28;91958;-65
2024/01/06 11:02:34;;;;;;;1.47;1.00;;;23.20;49.70;;;;;;4959910;28;94237;-65
2024/01/06 11:05:02;;;;;;;1.40;0.93;;;23.10;49.70;;;;;;4959682;28;93663;-65
2024/01/06 11:07:30;;;;;;;1.20;1.00;;;23.10;49.70;;;;;;4959562;28;91985;-65
2024/01/06 11:09:59;;;;;;;0.97;0.67;;;23.10;49.80;;;;;;4958828;28;92088;-65
2024/01/06 11:12:27;;;;;;;1.30;0.83;;;23.10;49.80;;;;;;4959946;28;93986;-65
2024/01/06 11:14:55;;;;;;;3.27;0.83;;;23.10;49.90;;;;;;4960033;28;93970;-65
2024/01/06 11:17:55;;;;;;;2.90;1.20;;;23.10;49.90;;;;;;4959462;28;92637;-65
2024/01/06 11:20:24;;;;;;;0.80;0.67;;;23.00;49.80;;;;;;4958709;28;92043;-65
2024/01/06 11:22:52;;;;;;;1.03;0.97;;;23.00;49.90;;;;;;4957875;28;95131;-65
2024/01/06 11:25:21;;;;;;;0.73;0.73;;;23.00;49.90;;;;;;4958262;28;97557;-65
2024/01/06 11:27:49;;;;;;;0.50;0.50;;;22.90;49.90;;;;;;4960001;28;92055;-65
2024/01/06 11:30:21;;;;;;;0.70;0.70;;;22.90;50.60;;;;;;4960008;28;92092;-65
2024/01/06 11:32:49;;;;;;;1.60;0.77;;;22.90;50.30;;;;;;4958893;28;93938;-65
2024/01/06 11:35:19;;;;;;;1.10;0.90;;;22.80;50.00;;;;;;4965993;28;93083;-65
2024/01/06 11:37:55;;;;;;;0.67;0.50;;;22.80;50.10;;;;;;4979025;28;92187;-65
2024/01/06 11:40:25;;;;;;;1.50;0.67;;;22.80;50.10;;;;;;4979005;28;91215;-65
2024/01/06 11:43:01;;;;;;;0.83;0.80;;;22.70;50.00;;;;;;4978155;28;94380;-65
2024/01/06 11:45:29;;;;;;;0.70;0.70;;;22.70;50.00;;;;;;4958964;28;94110;-65
2024/01/06 11:48:00;;;;;;;1.07;0.90;;;22.70;50.10;;;;;;4956110;28;93048;-65
2024/01/06 11:50:30;;;;;;;1.37;1.03;;;22.70;50.10;;;;;;4955966;28;92264;-65
2024/01/06 11:52:59;;;;;;;2.33;0.83;;;22.70;50.10;;;;;;4955801;28;94300;-65
2024/01/06 11:55:28;;;;;;;0.60;0.60;;;22.70;50.20;;;;;;4955379;28;93871;-64
2024/01/06 11:57:57;;;;;;;0.80;0.67;;;22.70;50.10;;;;;;4955648;28;92097;-65
2024/01/06 12:00:26;;;;;;;2.13;0.50;;;22.60;50.20;;;;;;4955874;28;92512;-65
2024/01/06 12:02:57;;;;;;;1.60;0.67;;;22.60;50.20;;;;;;4955649;28;94652;-65
2024/01/06 12:05:26;;;;;;;0.40;0.40;;;22.60;50.20;;;;;;4955205;28;93891;-65
2024/01/06 12:07:56;;;;;;;0.70;0.50;;;22.50;50.10;;;;;;4955259;28;92034;-65
2024/01/06 12:10:24;;;;;;;0.50;0.50;;;22.60;50.30;;;;;;4955911;28;92366;-65
2024/01/06 12:13:01;;;;;;;1.07;0.80;;;22.60;50.80;;;;;;4954240;28;95074;-65
2024/01/06 12:15:30;;;;;;;0.47;0.43;;;22.50;50.20;;;;;;4955877;28;94089;-65
2024/01/06 12:17:58;;;;;;;0.50;0.50;;;22.50;50.20;;;;;;4955308;28;92728;-65
2024/01/06 12:20:28;;;;;;;0.30;0.30;;;22.50;50.20;;;;;;4955034;28;92225;-65
2024/01/06 12:22:59;;;;;;;0.87;0.73;;;22.50;50.20;;;;;;4954436;28;94225;-65
2024/01/06 12:25:28;;;;;;;0.70;0.70;;;22.60;50.40;;;;;;4955282;28;94077;-66
2024/01/06 12:27:55;;;;;;;0.30;0.30;;;22.50;50.20;;;;;;4955509;28;92554;-64
2024/01/06 12:30:25;;;;;;;0.50;0.50;;;22.50;50.30;;;;;;4955707;28;92218;-64
2024/01/06 12:32:54;;;;;;;0.93;0.30;;;22.40;50.30;;;;;;4954778;28;94261;-64
2024/01/06 12:35:22;;;;;;;0.50;0.40;;;22.50;50.50;;;;;;4954592;28;93882;-64
2024/01/06 12:37:50;;;;;;;0.60;0.60;;;22.40;50.30;;;;;;4955082;28;93069;-64
2024/01/06 12:40:21;;;;;;;0.53;0.47;;;22.40;50.20;;;;;;4954921;28;92468;-64
2024/01/06 12:42:49;;;;;;;0.67;0.60;;;22.40;50.30;;;;;;4954700;28;94119;-64
2024/01/06 12:45:17;;;;;;;0.40;0.40;;;22.40;50.30;;;;;;4953948;28;94062;-64
2024/01/06 12:47:46;;;;;;;1.17;0.60;;;22.40;50.40;;;;;;4955269;28;92077;-64
2024/01/06 12:50:14;;;;;;;0.60;0.60;;;22.30;50.20;;;;;;4954238;28;92275;-64
2024/01/06 12:52:42;;;;;;;0.40;0.40;;;22.30;50.30;;;;;;4954749;28;94363;-65